This is the latest recevied weather packets stored in our database for station/object EB1BWO-10. If no packets are shown the sender has not sent any weather packets the latest 1 day(s).
| Time | Temp. | Humidity | Pressure | Rain* | Wind** | Luminosity | Snow |
|---|---|---|---|---|---|---|---|
| 1778082181 | 10° C | 88% | 949 hPa | - | - | - | - |
| 1778081281 | 10° C | 86% | 949.1 hPa | - | - | - | - |
| 1778080381 | 10° C | 86% | 949.2 hPa | - | - | - | - |
| 1778079481 | 10° C | 86% | 949.2 hPa | - | - | - | - |
| 1778070481 | 13.89° C | 75% | 949.5 hPa | - | - | - | - |
| 1778068681 | 13.89° C | 74% | 949.5 hPa | - | - | - | - |
| 1778067781 | 15.56° C | 76% | 949.4 hPa | - | - | - | - |
| 1778066881 | 15° C | 69% | 949.5 hPa | - | - | - | - |
| 1778065981 | 12.78° C | 80% | 949.6 hPa | - | - | - | - |
| 1778065081 | 13.89° C | 74% | 949.5 hPa | - | - | - | - |
| 1778056980 | 11.67° C | 76% | 949.3 hPa | - | - | - | - |
| 1778054280 | 11.67° C | 80% | 949.2 hPa | - | - | - | - |
| 1778052479 | 10° C | 77% | 949.3 hPa | - | - | - | - |
| 1778047080 | 8.89° C | 80% | 948.8 hPa | - | - | - | - |
| 1778046180 | 8.33° C | 81% | 948.7 hPa | - | - | - | - |
| 1778045280 | 8.33° C | 82% | 948.6 hPa | - | - | - | - |
| 1778044380 | 8.33° C | 80% | 948.5 hPa | - | - | - | - |
| 1778043480 | 8.33° C | 79% | 948.5 hPa | - | - | - | - |
| 1778042580 | 8.33° C | 81% | 948.6 hPa | - | - | - | - |
| 1778041680 | 8.33° C | 80% | 948.6 hPa | - | - | - | - |
| 1778040780 | 8.33° C | 80% | 948.5 hPa | - | - | - | - |
| 1778039879 | 8.33° C | 79% | 948.6 hPa | - | - | - | - |
| 1778038979 | 8.33° C | 79% | 948.7 hPa | - | - | - | - |
| 1778038079 | 8.33° C | 79% | 948.7 hPa | - | - | - | - |
| 1778037179 | 8.33° C | 82% | 948.8 hPa | - | - | - | - |
* Rain since midnight (hover to see other rain measurements)
** Current wind speed in m/s (hover to see current wind gust speed)